Home   Weather   United Kingdom   Fraserburgh   Past weeks
Flag for United Kingdom

Past Weather in Fraserburgh, Scotland, United Kingdom — Yesterday and Last 2 Weeks

Currently: 61 °F. Passing clouds. (Weather station: Aberdeen / Dyce, United Kingdom). See more current weather

Past Weather in Fraserburgh — Graph

°F

Fraserburgh Temperature Yesterday

Maximum temperature yesterday: 66 °F (at 12:50 pm)
Minimum temperature yesterday: 57 °F (at 4:20 am)
Average temperature yesterday: 61 °F

High & Low Weather Summary for the Past Weeks

 TemperatureHumidityPressure
High72 °F (Jul 17, 3:20 pm)100% (Jul 5, 10:50 pm)30.12 "Hg (Jul 5, 10:50 pm)
Low45 °F (Jul 8, 4:50 am)46% (Jul 4, 3:50 pm)29.36 "Hg (Jul 3, 11:20 pm)
Average55 °F85%29.81 "Hg
* Reported Jul 3 11:20 pm — Jul 18 11:50 pm, Fraserburgh. Weather by CustomWeather, © 2024

Note: Actual official high and low records may vary slightly from our data, if they occured in-between our weather recording intervals... More about our weather records

Fraserburgh Weather History for the Previous 24 Hours

Scroll right to see more
 ConditionsComfort  
Time TempWeatherWind HumidityBarometerVisibility
11:50 pm
Thu, Jul 18
61 °FPassing clouds.6 mph83%30.01 "HgN/A
11:20 pm61 °FPassing clouds.9 mph83%30.01 "HgN/A
10:50 pm59 °FClear.7 mph88%30.01 "HgN/A
10:20 pm59 °FClear.8 mph88%30.04 "HgN/A
9:50 pm63 °FClear.9 mph77%30.01 "HgN/A
9:20 pm63 °FClear.13 mph83%30.01 "HgN/A
8:50 pm63 °FPassing clouds.7 mph83%30.01 "HgN/A
8:20 pm64 °FPartly sunny.8 mph78%30.01 "HgN/A
7:50 pm64 °FPartly sunny.9 mph78%30.01 "HgN/A
7:20 pm64 °FPartly sunny.12 mph78%30.01 "HgN/A
6:50 pm64 °FMostly cloudy.10 mph78%30.01 "HgN/A
6:20 pm64 °FOvercast.8 mph73%30.01 "HgN/A
5:50 pm64 °FPartly sunny.12 mph73%30.01 "HgN/A
5:20 pm64 °FMostly cloudy.12 mph73%30.01 "HgN/A
4:50 pm64 °FPartly sunny.13 mph73%30.01 "HgN/A
4:20 pm64 °FOvercast.13 mph73%30.01 "HgN/A
3:50 pm64 °FOvercast.12 mph73%30.01 "HgN/A
3:20 pm64 °FPartly sunny.16 mph73%30.01 "HgN/A
2:50 pm66 °FPartly sunny.17 mph68%30.01 "HgN/A
2:20 pm64 °FBroken clouds.15 mph73%30.01 "HgN/A
1:50 pm64 °FBroken clouds.15 mph78%30.01 "HgN/A
1:20 pm64 °FScattered clouds.15 mph73%30.01 "HgN/A
12:50 pm66 °FPassing clouds.16 mph68%30.01 "HgN/A
11:50 am64 °FPartly sunny.16 mph73%30.01 "HgN/A
11:20 am64 °FPartly sunny.13 mph73%30.01 "HgN/A
10:50 am63 °FPartly sunny.16 mph77%30.01 "HgN/A
10:20 am61 °FScattered clouds.13 mph83%30.01 "HgN/A
9:50 am61 °FClear.10 mph83%30.01 "HgN/A
9:20 am59 °FScattered clouds.12 mph88%30.01 "HgN/A
8:50 am59 °FClear.14 mph88%30.01 "HgN/A
8:20 am59 °FClear.12 mph88%30.01 "HgN/A
7:50 am57 °FClear.12 mph94%30.01 "HgN/A
7:20 am57 °FClear.10 mph88%30.04 "HgN/A
6:50 am57 °FLight rain. Clear.7 mph88%30.01 "HgN/A
6:20 am57 °FClear.8 mph88%30.01 "HgN/A
5:50 am57 °FLight rain. Clear.9 mph88%30.01 "HgN/A
5:20 am57 °FLight rain. Clear.8 mph88%30.01 "HgN/A
4:50 am57 °FSunny.6 mph88%30.01 "Hg10 mi
4:20 am57 °FClear.6 mph88%30.04 "HgN/A
3:20 am59 °FLight rain. Clear.10 mph88%30.04 "HgN/A
2:20 am59 °FLight rain. Overcast.6 mph88%30.04 "HgN/A
1:50 am59 °FCool.5 mph82%30.04 "HgN/A
1:20 am61 °FCool.8 mph77%30.04 "HgN/A
Weather by CustomWeather, © 2024

See weather overview